Time;durP1;ratioP1;P1;durP2;ratioP2;P2;SDS_P1;SDS_P2;PMS_P1;PMS_P2;Temp;Humidity;BMP_temperature;BMP_pressure;BME280_temperature;BME280_humidity;BME280_pressure;Samples;Min_cycle;Max_cycle;Signal;HPM_P1;HPM_P2
2022/08/22 00:01:39;;;;;;;21.42;4.75;;;;;;;19.95;80.99;99931.28;1707395;82;21017;-68
2022/08/22 00:04:38;;;;;;;20.85;3.95;;;;;;;19.91;81.16;99931.53;1717259;82;21099;-67
2022/08/22 00:07:22;;;;;;;25.70;5.67;;;;;;;19.88;81.33;99937.98;1710698;82;21098;-68
2022/08/22 00:10:08;;;;;;;21.20;5.47;;;;;;;19.86;81.39;99940.95;1723369;82;21017;-69
2022/08/22 00:12:51;;;;;;;19.60;4.20;;;;;;;19.85;81.40;99942.01;1714870;82;21080;-69
2022/08/22 00:15:29;;;;;;;21.60;4.42;;;;;;;19.83;81.40;99937.40;1690126;83;21082;-68
2022/08/22 00:18:09;;;;;;;25.25;4.67;;;;;;;19.81;81.29;99934.95;1721425;82;21478;-70
2022/08/22 00:20:57;;;;;;;17.92;5.05;;;;;;;19.79;81.33;99931.69;1681876;83;21556;-68
2022/08/22 00:23:53;;;;;;;21.60;5.15;;;;;;;19.76;81.41;99928.17;1704791;82;21110;-70
2022/08/22 00:26:43;;;;;;;15.90;4.30;;;;;;;19.74;81.28;99930.84;1713521;82;21089;-68
2022/08/22 00:29:20;;;;;;;20.25;4.85;;;;;;;19.72;81.28;99927.55;1743688;80;21119;-67
2022/08/22 00:31:52;;;;;;;20.55;4.60;;;;;;;19.68;81.14;99933.20;1748832;80;21691;-68
2022/08/22 00:34:35;;;;;;;18.82;4.97;;;;;;;19.65;81.24;99938.05;1736027;80;21134;-68
2022/08/22 00:37:24;;;;;;;21.50;4.85;;;;;;;19.64;81.21;99938.30;1715129;82;21066;-69
2022/08/22 00:40:24;;;;;;;21.30;4.92;;;;;;;19.62;81.18;99941.27;1711153;82;21012;-67
2022/08/22 00:43:10;;;;;;;15.28;3.92;;;;;;;19.61;81.21;99936.95;1711623;82;21044;-69
2022/08/22 00:45:53;;;;;;;;;;;;;;;19.62;81.21;99940.45;1710293;82;21061;-68
2022/08/22 00:48:37;;;;;;;19.17;4.15;;;;;;;19.64;81.02;99939.66;1675105;84;20131;-68
2022/08/22 00:51:30;;;;;;;15.00;3.45;;;;;;;19.58;80.99;99940.70;1690562;83;21073;-69
2022/08/22 00:54:41;;;;;;;26.77;5.17;;;;;;;19.56;80.91;99940.95;1683288;84;21041;-69
2022/08/22 00:57:24;;;;;;;15.70;3.58;;;;;;;19.53;80.74;99949.56;1714605;82;20979;-68
2022/08/22 01:00:14;;;;;;;13.40;3.60;;;;;;;19.51;80.70;99950.36;1716371;82;21051;-68
2022/08/22 01:03:02;;;;;;;16.20;4.15;;;;;;;19.50;80.66;99953.34;1712397;82;21042;-68
2022/08/22 01:06:11;;;;;;;19.42;4.37;;;;;;;19.44;81.22;99951.94;1714645;82;21050;-68
2022/08/22 01:09:12;;;;;;;16.82;4.95;;;;;;;19.38;81.56;99957.02;1710534;82;22314;-67
2022/08/22 01:12:05;;;;;;;20.55;4.95;;;;;;;19.32;81.74;99953.16;1717771;82;21004;-68
2022/08/22 01:14:54;;;;;;;19.52;4.40;;;;;;;19.30;81.67;99949.91;1681120;82;21086;-68
2022/08/22 01:17:38;;;;;;;18.92;5.05;;;;;;;19.30;81.35;99945.31;1665698;84;21057;-69
2022/08/22 01:20:59;;;;;;;19.37;4.65;;;;;;;19.31;81.15;99942.06;1709458;82;21018;-68
2022/08/22 01:24:22;;;;;;;13.60;4.33;;;;;;;19.29;81.04;99943.69;1716500;82;21016;-68
2022/08/22 01:27:15;;;;;;;18.37;4.25;;;;;;;19.24;81.30;99947.14;1715136;82;21061;-69
2022/08/22 01:30:19;;;;;;;14.85;3.60;;;;;;;19.18;81.36;99952.22;1703575;82;20997;-70
2022/08/22 01:33:23;;;;;;;14.05;3.37;;;;;;;19.17;81.30;99952.47;1717785;82;21090;-67
2022/08/22 01:36:13;;;;;;;18.57;3.22;;;;;;;19.18;81.22;99954.12;1656342;82;21494;-68
2022/08/22 01:39:20;;;;;;;13.88;4.00;;;;;;;19.19;80.99;99958.44;1714851;82;21552;-70
2022/08/22 01:42:21;;;;;;;16.23;4.42;;;;;;;19.20;80.89;99959.53;1678462;84;21023;-68
2022/08/22 01:45:07;;;;;;;12.60;3.50;;;;;;;19.21;80.48;99965.75;1711453;82;21537;-68
2022/08/22 01:47:51;;;;;;;20.27;3.67;;;;;;;19.21;80.45;99965.23;1691079;82;21017;-68
2022/08/22 01:50:40;;;;;;;16.82;4.55;;;;;;;19.21;80.11;99961.18;1714680;82;20992;-68
2022/08/22 01:53:30;;;;;;;15.90;4.12;;;;;;;19.20;79.94;99952.78;1716007;82;21092;-70
2022/08/22 01:56:13;;;;;;;26.07;3.75;;;;;;;19.22;79.89;99957.39;1715334;81;21076;-69
2022/08/22 01:59:06;;;;;;;12.65;3.67;;;;;;;19.22;79.51;99956.58;1704957;82;21631;-67
2022/08/22 02:01:51;;;;;;;25.57;4.30;;;;;;;19.21;79.33;99963.05;1672198;83;20971;-69
2022/08/22 02:04:44;;;;;;;28.30;3.95;;;;;;;19.20;79.10;99960.89;1711428;82;20968;-68
2022/08/22 02:07:50;;;;;;;16.07;3.95;;;;;;;19.18;79.05;99964.92;1675624;82;21061;-72
2022/08/22 02:10:42;;;;;;;15.78;3.45;;;;;;;19.14;78.99;99960.56;1677916;84;20953;-68
2022/08/22 02:13:23;;;;;;;19.82;3.87;;;;;;;19.11;78.91;99967.00;1709312;82;21516;-70
2022/08/22 02:15:55;;;;;;;28.17;4.28;;;;;;;19.09;78.78;99962.39;1715408;82;21033;-68
2022/08/22 02:18:33;;;;;;;16.73;4.65;;;;;;;19.05;78.53;99959.38;1705272;82;21560;-69
2022/08/22 02:21:11;;;;;;;10.03;3.83;;;;;;;19.03;78.32;99965.03;1660541;84;21532;-70
2022/08/22 02:24:00;;;;;;;18.45;3.25;;;;;;;19.01;78.37;99960.42;1678162;81;20997;-67
2022/08/22 02:27:12;;;;;;;17.90;3.33;;;;;;;18.98;78.31;99966.31;1713413;82;21089;-67
2022/08/22 02:29:53;;;;;;;24.07;4.12;;;;;;;18.96;78.35;99967.64;1668454;84;21107;-69
2022/08/22 02:32:46;;;;;;;12.93;2.85;;;;;;;18.93;78.36;99966.80;1706608;82;21039;-68
2022/08/22 02:35:27;;;;;;;18.40;2.45;;;;;;;18.91;78.26;99968.94;1701044;82;21073;-68
2022/08/22 02:38:16;;;;;;;14.15;2.65;;;;;;;18.89;78.25;99965.67;1709427;82;21485;-68
2022/08/22 02:41:11;;;;;;;12.58;3.92;;;;;;;18.88;78.08;99972.16;1705983;82;21025;-68
2022/08/22 02:43:51;;;;;;;16.23;4.05;;;;;;;18.86;77.95;99973.21;1709486;82;20987;-72
2022/08/22 02:46:48;;;;;;;15.30;3.52;;;;;;;18.85;77.93;99978.86;1717031;82;21044;-69
2022/08/22 02:49:34;;;;;;;14.60;3.17;;;;;;;18.84;77.81;99978.59;1672799;84;21107;-69
2022/08/22 02:52:14;;;;;;;17.20;4.13;;;;;;;18.83;77.74;99981.80;1717297;82;21005;-72
2022/08/22 02:55:09;;;;;;;12.18;3.45;;;;;;;18.83;77.58;99976.41;1712300;82;21143;-69
2022/08/22 02:57:43;;;;;;;11.30;3.05;;;;;;;18.84;76.92;99983.45;1697943;82;20982;-71
2022/08/22 03:00:18;;;;;;;14.95;3.67;;;;;;;18.87;76.84;99982.12;1710374;82;21008;-72
2022/08/22 03:02:59;;;;;;;17.17;3.30;;;;;;;18.85;76.59;99978.34;1704012;82;21446;-70
2022/08/22 03:05:37;;;;;;;15.78;2.40;;;;;;;18.86;76.67;99978.61;1708649;82;21001;-67
2022/08/22 03:08:14;;;;;;;15.35;2.45;;;;;;;18.89;76.42;99984.57;1720705;82;20998;-68
2022/08/22 03:11:12;;;;;;;12.25;2.52;;;;;;;18.91;75.97;99985.97;1708464;82;21172;-68
2022/08/22 03:14:04;;;;;;;15.98;4.10;;;;;;;18.93;75.95;99987.88;1679880;82;21092;-69
2022/08/22 03:16:55;;;;;;;19.80;3.60;;;;;;;18.94;75.60;99982.75;1714274;82;21118;-68
2022/08/22 03:19:56;;;;;;;15.72;2.70;;;;;;;18.97;75.28;99982.80;1707287;82;21501;-72
2022/08/22 03:22:36;;;;;;;14.15;3.77;;;;;;;19.02;74.95;99985.53;1677612;84;21098;-71
2022/08/22 03:25:48;;;;;;;14.55;3.08;;;;;;;19.06;74.41;99990.70;1715850;82;21035;-68
2022/08/22 03:28:20;;;;;;;14.98;3.42;;;;;;;19.13;74.46;99989.98;1717839;82;21072;-68
2022/08/22 03:31:13;;;;;;;9.18;3.77;;;;;;;19.25;73.57;99982.56;1705771;82;21086;-69
2022/08/22 03:33:40;;;;;;;19.02;3.65;;;;;;;19.36;73.44;99981.30;1676388;82;21503;-69
2022/08/22 03:36:15;;;;;;;14.05;2.98;;;;;;;19.53;72.99;100002.27;1692326;81;21111;-69
2022/08/22 03:39:13;;;;;;;12.25;2.98;;;;;;;19.71;72.45;99995.69;1728832;81;21064;-69
2022/08/22 03:42:03;;;;;;;14.18;3.37;;;;;;;19.93;71.44;99996.16;1734040;81;21796;-68
2022/08/22 03:45:20;;;;;;;12.58;3.05;;;;;;;20.19;70.93;100002.05;1689572;78;21065;-68
2022/08/22 03:48:26;;;;;;;11.18;2.55;;;;;;;20.46;70.12;100002.48;1731380;81;20986;-68
2022/08/22 03:51:29;;;;;;;11.60;2.80;;;;;;;20.67;69.86;100010.75;1726248;81;21498;-68
2022/08/22 03:54:00;;;;;;;16.42;3.00;;;;;;;20.93;68.42;100008.98;1731516;81;21416;-67
2022/08/22 03:56:50;;;;;;;11.68;3.47;;;;;;;21.21;67.09;100017.20;1719535;81;21522;-68
2022/08/22 04:00:14;;;;;;;9.95;2.37;;;;;;;21.44;66.18;100017.80;1671747;84;21117;-68
2022/08/22 04:02:55;;;;;;;10.25;3.08;;;;;;;21.72;64.02;100015.16;1703497;82;21046;-68
2022/08/22 04:05:54;;;;;;;9.55;3.15;;;;;;;22.13;63.02;100021.91;1712789;82;20991;-69
2022/08/22 04:08:44;;;;;;;9.15;2.80;;;;;;;22.52;61.46;100024.86;1681856;83;21071;-68
2022/08/22 04:11:25;;;;;;;13.90;3.12;;;;;;;22.89;59.08;100019.59;1703806;83;21482;-68
2022/08/22 04:14:10;;;;;;;11.12;2.30;;;;;;;23.22;57.79;100020.55;1693717;81;21367;-68
2022/08/22 04:17:14;;;;;;;15.55;3.60;;;;;;;23.57;55.98;100016.00;1696064;83;21613;-69
2022/08/22 04:20:09;;;;;;;11.83;3.17;;;;;;;23.80;54.38;100022.10;1709049;81;21100;-68
2022/08/22 04:23:15;;;;;;;10.38;2.33;;;;;;;24.15;53.20;100022.91;1726096;80;21644;-68
2022/08/22 04:25:58;;;;;;;13.28;2.33;;;;;;;24.48;52.00;100022.55;1721278;80;21009;-68
2022/08/22 04:28:39;;;;;;;8.70;2.17;;;;;;;24.83;50.74;100026.58;1709474;81;21042;-69
2022/08/22 04:31:16;;;;;;;13.15;1.67;;;;;;;25.08;48.60;100017.82;1697741;82;21001;-69
2022/08/22 04:34:00;;;;;;;13.80;2.90;;;;;;;25.25;48.11;100017.59;1738316;80;20994;-67
2022/08/22 04:36:50;;;;;;;11.35;2.22;;;;;;;25.42;47.36;100025.27;1736543;82;21022;-67
2022/08/22 04:40:49;;;;;;;13.50;2.27;;;;;;;25.72;47.32;100024.55;1800503;78;22954;-68
2022/08/22 04:43:27;;;;;;;6.05;1.90;;;;;;;25.96;46.72;100029.92;1781550;79;20974;-70
2022/08/22 04:46:13;;;;;;;8.03;1.95;;;;;;;26.35;45.14;100033.34;1673604;79;21055;-67
2022/08/22 04:48:44;;;;;;;10.40;2.40;;;;;;;26.66;43.78;100039.08;1665702;84;21057;-69
2022/08/22 04:51:22;;;;;;;14.58;2.35;;;;;;;26.79;43.46;100031.44;1652684;84;21089;-69
2022/08/22 04:54:03;;;;;;;13.38;2.72;;;;;;;26.89;43.95;100032.34;1648780;86;21026;-69
2022/08/22 04:57:00;;;;;;;7.72;1.92;;;;;;;27.12;43.61;100029.92;1645226;84;21023;-68
2022/08/22 04:59:30;;;;;;;10.60;1.85;;;;;;;27.37;42.48;100033.27;1678511;84;21645;-73
2022/08/22 05:02:05;;;;;;;8.00;1.40;;;;;;;27.53;41.96;100038.62;1652947;83;20999;-74
2022/08/22 05:04:43;;;;;;;15.23;2.55;;;;;;;27.67;41.47;100034.48;1634640;86;21535;-70
2022/08/22 05:07:23;;;;;;;11.45;2.27;;;;;;;27.84;40.99;100035.17;1658955;83;21033;-73
2022/08/22 05:09:55;;;;;;;9.75;2.20;;;;;;;27.90;40.87;100037.25;1669000;85;20985;-70
2022/08/22 05:12:35;;;;;;;7.90;2.08;;;;;;;27.76;40.35;100036.73;1729898;80;20996;-69
2022/08/22 05:15:09;;;;;;;19.10;1.67;;;;;;;27.69;40.71;100037.72;1717608;81;21149;-69
2022/08/22 05:17:40;;;;;;;11.33;1.65;;;;;;;27.80;40.75;100039.63;1714627;82;21115;-67
2022/08/22 05:20:11;;;;;;;12.28;2.22;;;;;;;27.90;39.32;100039.99;1708018;83;21055;-68
2022/08/22 05:22:45;;;;;;;13.62;2.10;;;;;;;27.80;39.94;100027.30;1683511;83;21547;31
2022/08/22 05:25:20;;;;;;;11.75;2.37;;;;;;;27.98;38.62;100035.69;1665571;85;21022;-69
2022/08/22 05:27:52;;;;;;;6.58;1.65;;;;;;;27.96;38.45;100031.31;1664057;82;21494;-70
2022/08/22 05:30:23;;;;;;;9.85;1.30;;;;;;;27.94;38.05;100034.94;1606096;87;21098;-69
2022/08/22 05:33:02;;;;;;;10.68;1.82;;;;;;;27.85;38.10;100030.49;1653241;85;21046;-69
2022/08/22 05:35:42;;;;;;;11.12;2.12;;;;;;;27.45;38.29;100039.93;1639718;82;21067;-69
2022/08/22 05:38:13;;;;;;;11.88;1.55;;;;;;;27.05;38.49;100043.23;1695010;83;21039;-68
2022/08/22 05:40:41;;;;;;;9.43;1.60;;;;;;;26.76;39.45;100047.06;1647080;83;21175;-69
2022/08/22 05:43:11;;;;;;;14.07;1.30;;;;;;;26.48;39.72;100052.23;1627572;85;21044;-69
2022/08/22 05:45:43;;;;;;;11.55;1.62;;;;;;;26.11;40.61;100054.80;1666615;84;20997;-68
2022/08/22 05:48:21;;;;;;;15.83;1.72;;;;;;;25.89;41.48;100046.41;1704390;82;21097;-69
2022/08/22 05:50:58;;;;;;;11.10;1.30;;;;;;;25.75;41.69;100055.36;1705235;83;21046;-69
2022/08/22 05:53:35;;;;;;;9.30;2.15;;;;;;;25.52;41.60;100056.23;1694771;83;21210;-70
2022/08/22 05:56:10;;;;;;;10.55;1.35;;;;;;;25.19;41.34;100054.20;1708159;82;21025;-69
2022/08/22 05:58:58;;;;;;;18.17;2.30;;;;;;;24.92;42.00;100056.19;1681310;83;21097;-73
2022/08/22 06:01:36;;;;;;;8.20;1.57;;;;;;;24.46;43.06;100010.34;1686739;84;20998;-68
2022/08/22 06:04:43;;;;;;;15.55;1.82;;;;;;;24.53;42.76;100059.88;1660578;85;21046;-69
2022/08/22 06:07:36;;;;;;;11.12;1.57;;;;;;;24.38;42.77;100046.39;1694197;83;21101;-69
2022/08/22 06:10:28;;;;;;;7.17;1.07;;;;;;;24.42;43.25;100045.52;1656337;86;21113;-69
2022/08/22 06:13:00;;;;;;;11.25;2.15;;;;;;;24.38;43.61;100040.38;1628939;85;21071;-70
2022/08/22 06:15:45;;;;;;;9.85;1.45;;;;;;;24.41;43.42;100037.09;1687505;83;21071;-69
2022/08/22 06:18:15;;;;;;;12.13;1.95;;;;;;;24.45;43.45;100040.05;1665314;83;21004;-69
2022/08/22 06:20:53;;;;;;;10.03;1.95;;;;;;;24.54;43.13;100036.97;1676141;83;21070;-69
2022/08/22 06:23:39;;;;;;;10.48;2.30;;;;;;;24.66;42.56;100043.41;1672199;79;21043;-69
2022/08/22 06:26:10;;;;;;;10.93;1.82;;;;;;;24.94;41.96;100045.80;1697423;82;21036;-69
2022/08/22 06:28:41;;;;;;;10.58;2.60;;;;;;;25.29;41.67;100042.92;1656355;82;21144;-69
2022/08/22 06:31:22;;;;;;;11.00;1.77;;;;;;;25.67;41.04;100038.27;1658597;85;21134;-72
2022/08/22 06:34:16;;;;;;;6.90;1.20;;;;;;;26.03;40.73;100037.19;1612550;87;21107;-71
2022/08/22 06:36:47;;;;;;;13.60;2.30;;;;;;;26.38;39.87;100037.65;1669560;85;21073;-69
2022/08/22 06:39:34;;;;;;;10.75;2.02;;;;;;;26.68;39.78;100036.05;1668994;82;21643;-73
2022/08/22 06:42:15;;;;;;;19.15;2.47;;;;;;;26.91;40.05;100039.12;1657948;85;21374;-70
2022/08/22 06:44:49;;;;;;;10.25;2.15;;;;;;;27.21;38.83;100032.75;1720145;78;20982;-70
2022/08/22 06:47:37;;;;;;;11.08;2.45;;;;;;;27.35;38.05;100032.20;1754539;80;21115;-70
2022/08/22 06:50:32;;;;;;;8.08;1.82;;;;;;;27.25;37.34;100030.21;1674120;78;21216;-69
2022/08/22 06:53:22;;;;;;;9.05;1.00;;;;;;;27.20;37.70;100031.15;1728228;81;21097;-68
2022/08/22 06:55:53;;;;;;;9.00;1.75;;;;;;;27.40;36.73;100029.89;1764872;80;21025;-70
2022/08/22 06:58:42;;;;;;;6.47;0.70;;;;;;;27.50;37.20;100026.94;1723855;79;21082;-70
2022/08/22 07:01:14;;;;;;;5.80;1.62;;;;;;;27.74;36.95;100027.19;1721890;81;20982;-70
2022/08/22 07:03:50;;;;;;;13.83;2.15;;;;;;;28.07;36.20;100025.03;1698503;80;21141;-70
2022/08/22 07:06:22;;;;;;;11.12;1.20;;;;;;;28.13;36.13;100021.59;1642093;85;21094;-70
2022/08/22 07:08:54;;;;;;;10.38;1.85;;;;;;;28.02;36.11;100019.67;1688565;82;21640;-69
2022/08/22 07:11:31;;;;;;;14.35;2.33;;;;;;;27.86;36.30;100017.03;1665353;84;21050;-71
2022/08/22 07:14:06;;;;;;;12.85;3.15;;;;;;;27.58;36.85;100013.07;1643318;82;21700;-69
2022/08/22 07:16:43;;;;;;;15.83;2.77;;;;;;;27.56;37.41;100009.84;1594136;86;20986;-72
2022/08/22 07:19:33;;;;;;;11.50;2.50;;;;;;;27.65;36.49;100017.55;1715710;81;21570;-69
2022/08/22 07:22:11;;;;;;;15.45;3.12;;;;;;;27.69;35.68;100021.28;1733681;81;21002;-70
2022/08/22 07:24:49;;;;;;;13.15;2.55;;;;;;;27.68;35.61;100014.18;1733726;81;21032;-70
2022/08/22 07:27:48;;;;;;;13.55;3.15;;;;;;;27.54;35.81;100005.23;1741775;81;21389;-68
2022/08/22 07:30:17;;;;;;;11.80;3.30;;;;;;;27.24;36.80;100008.89;1738349;81;21038;-70
2022/08/22 07:32:54;;;;;;;17.12;2.95;;;;;;;26.90;38.19;100016.17;1740562;81;20975;-69
2022/08/22 07:35:27;;;;;;;18.95;3.90;;;;;;;26.86;37.88;100011.06;1748530;78;21583;-67
2022/08/22 07:38:33;;;;;;;17.45;3.10;;;;;;;26.91;38.01;100016.44;1747745;81;21090;-68
2022/08/22 07:41:27;;;;;;;9.87;2.73;;;;;;;26.98;38.11;100009.44;1731369;82;20975;-69
2022/08/22 07:44:08;;;;;;;23.27;3.85;;;;;;;26.99;38.19;100004.77;1716512;82;21246;-68
2022/08/22 07:46:40;;;;;;;14.40;2.45;;;;;;;27.02;38.26;100002.00;1723578;82;21545;-70
2022/08/22 07:49:22;;;;;;;14.25;2.95;;;;;;;27.11;37.83;100007.00;1735292;81;21148;-71
2022/08/22 07:51:59;;;;;;;15.65;2.67;;;;;;;27.14;37.69;100009.09;1743955;81;21534;-69
2022/08/22 07:54:57;;;;;;;14.30;3.25;;;;;;;27.14;37.64;100005.83;1745667;81;21170;-70
2022/08/22 07:57:37;;;;;;;14.47;2.60;;;;;;;27.21;37.42;100000.48;1731360;81;21046;-69
2022/08/22 08:00:11;;;;;;;14.90;2.12;;;;;;;27.17;37.32;99998.92;1747127;81;21074;-70
2022/08/22 08:02:45;;;;;;;18.73;1.90;;;;;;;27.14;34.66;100002.27;1727830;81;21095;-69
2022/08/22 08:05:13;;;;;;;10.25;1.02;;;;;;;27.04;34.76;99997.83;1709250;81;21129;-70
2022/08/22 08:07:44;;;;;;;15.35;2.35;;;;;;;26.99;34.81;100002.03;1685141;83;21029;-70
2022/08/22 08:10:21;;;;;;;12.60;1.67;;;;;;;26.95;34.75;100011.41;1694086;83;20978;-71
2022/08/22 08:12:52;;;;;;;11.95;1.40;;;;;;;26.78;35.21;100010.66;1715283;80;21134;-69
2022/08/22 08:15:22;;;;;;;13.45;2.00;;;;;;;26.65;35.93;100003.28;1733313;81;21021;-69
2022/08/22 08:17:53;;;;;;;14.00;1.50;;;;;;;26.65;36.37;100008.74;1748145;81;21116;-71
2022/08/22 08:20:22;;;;;;;14.45;2.02;;;;;;;26.72;36.42;99998.22;1747357;81;21696;-71
2022/08/22 08:22:50;;;;;;;15.58;2.17;;;;;;;26.72;36.52;100002.32;1759758;79;20977;-70
2022/08/22 08:25:21;;;;;;;9.18;1.35;;;;;;;26.76;37.01;99998.42;1801993;79;21064;-68
2022/08/22 08:30:43;;;;;;;;;;;;;;;26.92;37.06;100005.77;1768680;80;21002;-70
2022/08/22 08:33:15;;;;;;;7.05;1.98;;;;;;;26.95;37.78;99995.56;1747854;79;20217;-69
2022/08/22 08:35:52;;;;;;;12.10;1.80;;;;;;;26.91;38.61;100004.13;1771776;80;20983;-69
2022/08/22 08:38:26;;;;;;;9.93;1.30;;;;;;;26.89;38.66;99998.16;1772877;80;21667;-70
2022/08/22 08:41:13;;;;;;;11.83;1.60;;;;;;;26.81;38.86;99987.39;1764096;80;20977;-70
2022/08/22 08:43:50;;;;;;;12.33;1.65;;;;;;;26.77;38.17;99995.39;1717109;80;21045;-71
2022/08/22 08:46:24;;;;;;;10.88;1.57;;;;;;;26.78;38.26;99990.72;1689568;80;21085;-71
2022/08/22 08:49:30;;;;;;;14.10;2.60;;;;;;;26.84;38.08;99990.86;1668152;84;21801;-70
2022/08/22 08:52:43;;;;;;;13.78;1.98;;;;;;;26.89;37.52;99990.76;1698310;83;21116;-68
2022/08/22 08:55:39;;;;;;;15.32;1.85;;;;;;;26.95;36.53;99995.56;1694294;82;20989;-69
2022/08/22 08:58:42;;;;;;;27.48;2.10;;;;;;;26.91;36.99;99994.00;1694565;83;21024;-70
2022/08/22 09:02:02;;;;;;;18.05;2.35;;;;;;;26.95;37.53;99996.93;1702132;81;21131;-72
2022/08/22 09:05:06;;;;;;;12.90;1.12;;;;;;;27.05;35.25;100013.67;1705400;83;21547;-72
2022/08/22 09:07:55;;;;;;;14.95;2.02;;;;;;;27.05;35.22;99998.63;1704748;83;21113;-70
2022/08/22 09:10:36;;;;;;;15.18;1.37;;;;;;;27.19;35.65;100000.79;1704923;83;21028;-71
2022/08/22 09:13:48;;;;;;;24.43;2.37;;;;;;;27.26;34.79;99994.94;1694610;82;21069;-69
2022/08/22 09:16:38;;;;;;;21.37;1.98;;;;;;;27.30;33.96;100010.42;1687032;82;21025;-72
2022/08/22 09:19:10;;;;;;;10.48;1.47;;;;;;;27.31;33.97;100001.11;1683583;82;21079;-73
2022/08/22 09:22:17;;;;;;;18.02;2.10;;;;;;;27.31;34.11;99990.16;1659682;80;21122;-70
2022/08/22 09:25:24;;;;;;;16.70;2.08;;;;;;;27.37;34.34;99990.28;1728819;81;21062;-70
2022/08/22 09:28:01;;;;;;;14.50;1.93;;;;;;;27.46;33.57;99990.90;1731449;81;21059;-72
2022/08/22 09:30:38;;;;;;;18.62;1.95;;;;;;;27.49;34.00;99987.55;1735733;79;21564;-70
2022/08/22 09:33:15;;;;;;;17.82;1.95;;;;;;;27.54;34.46;99986.88;1700875;81;21593;-71
2022/08/22 09:36:10;;;;;;;29.23;2.87;;;;;;;27.56;34.77;99976.98;1764957;79;22212;-71
2022/08/22 09:39:13;;;;;;;19.82;2.22;;;;;;;27.62;34.43;99982.58;1750484;80;21145;-69
2022/08/22 09:41:51;;;;;;;21.25;2.65;;;;;;;27.69;34.00;99996.64;1767108;80;21120;-70
2022/08/22 09:44:54;;;;;;;15.88;2.00;;;;;;;27.74;34.00;99995.70;1763550;80;21018;-69
2022/08/22 09:47:33;;;;;;;19.05;2.75;;;;;;;27.73;34.08;99981.20;1733507;81;21436;-74
2022/08/22 09:50:20;;;;;;;33.83;4.20;;;;;;;27.72;33.66;99981.52;1731865;81;21139;-70
2022/08/22 09:53:08;;;;;;;;;;;;;;;27.71;33.53;100000.45;1705903;83;21097;-70
2022/08/22 09:55:40;;;;;;;21.75;3.20;;;;;;;27.66;33.81;99981.40;1723459;83;20131;-72
2022/08/22 09:58:30;;;;;;;29.02;2.90;;;;;;;27.58;33.94;99980.22;1724088;81;21084;-70
2022/08/22 10:01:23;;;;;;;22.70;3.37;;;;;;;27.60;34.00;99988.13;1734760;80;20954;-70
2022/08/22 10:04:46;;;;;;;24.63;3.50;;;;;;;27.57;34.36;99988.17;1742651;80;20981;-71
2022/08/22 10:07:56;;;;;;;24.05;3.85;;;;;;;27.53;34.58;99983.07;1734057;80;20968;-75
2022/08/22 10:10:37;;;;;;;20.00;2.80;;;;;;;27.48;34.50;99996.88;1737199;80;21100;-71
2022/08/22 10:13:37;;;;;;;22.85;3.67;;;;;;;27.47;35.13;99978.28;1742805;80;21017;-70
2022/08/22 10:16:25;;;;;;;24.87;3.25;;;;;;;27.45;35.96;99979.72;1720981;83;21050;-71
2022/08/22 10:19:21;;;;;;;24.50;4.60;;;;;;;27.45;35.83;99987.36;1706646;83;21045;-71
2022/08/22 10:22:28;;;;;;;22.77;3.12;;;;;;;27.52;35.89;99985.55;1694798;81;21213;-73
2022/08/22 10:25:24;;;;;;;31.00;4.53;;;;;;;27.56;36.29;99990.67;1677696;84;21057;-70
2022/08/22 10:28:31;;;;;;;29.07;4.50;;;;;;;27.59;36.36;99995.51;1654450;85;21615;-69
2022/08/22 10:31:24;;;;;;;37.23;5.42;;;;;;;27.61;36.19;99997.38;1641424;83;21145;-69
2022/08/22 10:34:11;;;;;;;37.83;5.87;;;;;;;27.63;36.56;99997.87;1696894;80;21019;-69
2022/08/22 10:37:04;;;;;;;40.78;5.58;;;;;;;27.66;36.49;99993.15;1716977;81;21108;-69
2022/08/22 10:39:51;;;;;;;27.62;4.37;;;;;;;27.69;36.56;100003.49;1683501;81;21088;-70
2022/08/22 10:42:28;;;;;;;22.10;4.50;;;;;;;27.73;36.84;100000.37;1665231;84;21806;-70
2022/08/22 10:45:36;;;;;;;24.90;4.40;;;;;;;27.76;37.00;99992.91;1739362;80;21025;-70
2022/08/22 10:48:12;;;;;;;27.17;3.27;;;;;;;27.79;36.94;100000.25;1718329;80;21038;-70
2022/08/22 10:50:51;;;;;;;23.90;5.40;;;;;;;27.77;37.13;99979.45;1704538;82;20974;-71
2022/08/22 10:53:40;;;;;;;35.52;5.33;;;;;;;27.81;37.42;100019.92;1720527;81;21156;-68
2022/08/22 10:56:17;;;;;;;45.58;6.05;;;;;;;27.88;37.31;99997.02;1748498;80;21071;-71
2022/08/22 10:59:04;;;;;;;36.80;6.03;;;;;;;27.91;37.22;99999.14;1746468;81;21130;-70
2022/08/22 11:01:36;;;;;;;43.92;5.95;;;;;;;27.94;37.16;100007.55;1770904;81;20955;-70
2022/08/22 11:04:19;;;;;;;39.92;5.83;;;;;;;27.98;36.80;99994.03;1730237;80;21069;-72
2022/08/22 11:06:54;;;;;;;42.65;5.62;;;;;;;28.01;36.91;100008.48;1724525;82;21045;-72
2022/08/22 11:09:36;;;;;;;38.85;6.47;;;;;;;27.99;36.55;99997.03;1735589;81;21123;-70
2022/08/22 11:12:18;;;;;;;47.05;7.47;;;;;;;28.03;36.54;99999.92;1725237;82;21015;-72
2022/08/22 11:15:19;;;;;;;46.73;7.72;;;;;;;28.07;36.19;99999.00;1738563;80;21065;-71
2022/08/22 11:18:10;;;;;;;49.65;8.05;;;;;;;28.11;35.75;100015.05;1749352;81;20986;-71
2022/08/22 11:21:03;;;;;;;44.38;6.83;;;;;;;28.14;35.80;100000.73;1784236;79;21129;-69
2022/08/22 11:23:53;;;;;;;42.73;7.85;;;;;;;28.17;36.17;99991.07;1759340;80;21012;-71
2022/08/22 11:26:42;;;;;;;45.15;7.28;;;;;;;28.22;36.38;99992.85;1731909;80;21172;-69
2022/08/22 11:29:35;;;;;;;55.85;8.38;;;;;;;28.26;35.86;100002.88;1729335;81;21045;-70
2022/08/22 11:32:26;;;;;;;55.08;9.63;;;;;;;28.29;34.59;100000.89;1692885;81;21146;-70
2022/08/22 11:35:02;;;;;;;41.08;7.70;;;;;;;28.29;34.62;99983.63;1721497;81;21054;-71
2022/08/22 11:37:59;;;;;;;43.85;7.53;;;;;;;28.33;34.50;99991.45;1759116;78;21560;-68
2022/08/22 11:40:43;;;;;;;37.10;6.85;;;;;;;28.40;34.47;99986.33;1761540;80;21524;-70
2022/08/22 11:43:42;;;;;;;51.90;7.67;;;;;;;28.43;34.65;99980.22;1748114;80;21034;-70
2022/08/22 11:46:31;;;;;;;46.02;7.25;;;;;;;28.50;34.66;99981.95;1719040;81;21092;-70
2022/08/22 11:49:11;;;;;;;46.50;8.70;;;;;;;28.63;33.77;99998.61;1759197;80;21568;-71
2022/08/22 11:51:58;;;;;;;54.18;7.78;;;;;;;28.67;33.88;99983.14;1756172;81;21036;-70
2022/08/22 11:54:30;;;;;;;52.78;8.98;;;;;;;28.70;33.93;100019.53;1785998;79;21128;-70
2022/08/22 11:57:21;;;;;;;62.70;8.88;;;;;;;28.72;33.94;99996.71;1780308;79;21530;-69
2022/08/22 11:59:59;;;;;;;54.73;8.15;;;;;;;28.75;33.70;99992.54;1772850;80;20974;-69
2022/08/22 12:03:05;;;;;;;50.33;9.80;;;;;;;28.77;33.73;100000.69;1737278;79;21580;-69
2022/08/22 12:05:37;;;;;;;54.95;10.15;;;;;;;28.76;33.78;100001.80;1738631;79;21092;-70
2022/08/22 12:08:21;;;;;;;52.78;9.93;;;;;;;28.68;34.03;99998.48;1728073;82;21002;-73
2022/08/22 12:11:14;;;;;;;58.25;8.73;;;;;;;28.62;34.29;99998.39;1716725;79;22353;-72
2022/08/22 12:14:04;;;;;;;54.00;9.48;;;;;;;28.61;34.45;100004.98;1678461;84;21588;-70
2022/08/22 12:16:51;;;;;;;62.90;9.50;;;;;;;28.59;34.66;99986.09;1698251;80;21067;-71
2022/08/22 12:19:37;;;;;;;70.83;10.78;;;;;;;28.56;34.82;99988.13;1728444;81;21010;-71
2022/08/22 12:22:15;;;;;;;70.57;10.90;;;;;;;28.53;34.69;99992.29;1721922;81;21085;-71
2022/08/22 12:24:50;;;;;;;55.12;10.93;;;;;;;28.53;34.37;99991.49;1697468;81;21161;-69
2022/08/22 12:27:37;;;;;;;58.33;9.65;;;;;;;28.56;34.37;99987.30;1712466;82;21129;-69
2022/08/22 12:30:30;;;;;;;64.53;11.00;;;;;;;28.59;34.27;99991.59;1724855;81;21011;-71
2022/08/22 12:33:31;;;;;;;52.45;8.78;;;;;;;28.61;34.36;99987.16;1751681;80;21133;-70
2022/08/22 12:36:05;;;;;;;53.90;10.80;;;;;;;28.64;34.38;99984.59;1682019;83;21063;-69
2022/08/22 12:38:58;;;;;;;66.77;10.63;;;;;;;28.69;33.71;100005.59;1691658;83;21191;-69
2022/08/22 12:41:49;;;;;;;72.95;10.55;;;;;;;28.72;33.31;99987.11;1731155;80;21043;-70
2022/08/22 12:44:52;;;;;;;46.75;7.92;;;;;;;28.69;33.86;99995.99;1739162;80;21000;-69
2022/08/22 12:48:00;;;;;;;54.18;9.53;;;;;;;28.71;34.22;99995.11;1772478;79;21045;-70
2022/08/22 12:50:37;;;;;;;65.65;9.83;;;;;;;28.73;33.98;99986.00;1753595;79;21110;-70
2022/08/22 12:53:27;;;;;;;62.93;9.70;;;;;;;28.71;34.29;100024.70;1753223;80;20989;-70